Historyczne dane pomiarowe

Dodano dane terminowe – wersja testowa.

Dane z okresu 1951-2019

Wersja bazy: 1.34 [2019-03-16, lista zmian], aktualizacja planowana na 2019-04-15

Dane meteo z obszaru Polski uzyskane na podstawie danych udostępnionych przez Instytut Meteorologii i Gospodarki Wodnej – Państwowy Instytut Badawczy.

 

Wybierz Datę:    

       

TemperaturaWilgotnośćZachmurzenieWiatrCiśnienieWidzialnośćZjawiska
 Data    tng td wb rh cc ccl cl cm ch dir g1 g2 mslp ppp      
1994-07-24 00:00:00 12.0--- 9.8 10.886wxwxwx0wx--1020.5 979.4 0.0---wx
1994-07-24 01:00:00 11.4--- 8.8 10.084wxwxwx0wx--1020.5 979.3----wx
1994-07-24 02:00:00 10.8--- 8.5 9.686wxwxwx0wx--1020.6 979.3----wx
1994-07-24 03:00:00 9.6--- 8.1 8.890wxwxwx0wx--1020.7 979.3----wx
1994-07-24 04:00:00 9.4--- 7.9 8.690wxwxwx0wx--1020.9 979.4----wx
1994-07-24 05:00:00 11.8--- 9.6 10.686wxwxwx0wx--1020.5 979.4----wx
1994-07-24 06:00:00 15.2--- 10.6 12.674wxwxwx0wx--1020.0 979.4 0.0---wx
1994-07-24 07:00:00 20.3--- 12.9 15.862wxwxwx0wx--1018.9 979.0----wx
1994-07-24 08:00:00 24.7--- 13.8 17.951wxwxwx2wx--1018.0 978.7----wx
1994-07-24 09:00:00 27.7--- 10.3 17.334wxwxwxwx3wx--1017.5 978.6----wx
1994-07-24 10:00:00 27.9--- 9.7 17.132wxwxwxwx3wx--1017.5 978.6----wx
1994-07-24 11:00:00 28.4--- 10.0 17.432wxwxwxwx2wx--1017.1 978.3----wx
1994-07-24 12:00:00 29.4--- 10.8 18.132wxwxwxwx2wx--1016.6 978.0 0.0---wx
1994-07-24 13:00:00 29.5--- 9.3 17.528wxwxwxwx3wx--1016.3 977.7----wx
1994-07-24 14:00:00 29.9--- 9.9 17.929wxwxwxwx2wx--1015.9 977.4----wx
1994-07-24 15:00:00 29.3--- 9.4 17.529wxwxwxwx2wx--1015.8 977.2----wx
1994-07-24 16:00:00 29.1--- 9.6 17.530wxwxwxwx1wx--1015.5 976.9----wx
1994-07-24 17:00:00 27.9--- 10.2 17.333wxwxwxwx0wx--1015.5 976.7----wx
1994-07-24 18:00:00 26.5--- 11.3 17.339wxwxwxwx0wx--1015.8 976.8 0.0---wx
1994-07-24 19:00:00 23.1--- 10.1 15.544wxwxwxwx0wx--1016.3 976.9----wx
1994-07-24 20:00:00 19.9--- 11.8 15.160wxwx0wx--1017.4 977.5----wx
1994-07-24 21:00:00 17.7--- 13.0 14.974wxwx0wx--1018.0 977.8----wx
1994-07-24 22:00:00 15.7--- 11.2 13.174wxwx0wx--1018.5 978.0----wx
1994-07-24 23:00:00 14.8--- 13.1 13.890wxwx0wx--1018.6 978.0----wx

 

Źródłem pochodzenia danych jest Instytut Meteorologii i Gospodarki Wodnej – Państwowy Instytut Badawczy. Dane Instytutu Meteorologii i Gospodarki Wodnej – Państwowego Instytutu Badawczego zostały przetworzone.

Dane źródłowe można odnaleźć na stronie https://dane.imgw.pl